PAUN/UNK METAR and TAF weather

Enter ICAO airport designator
Station Type Date Time Source
PAUN METAR 2021/10/24 21:56 UTC NOAA

PAUN 242156Z AUTO 21016KT 10SM BKN016 OVC022 01/M02 A2944 RMK AO2 UPE2058 SLP973 P0000 T00111017 FZRANO


Station Type Date Time Source
PAUN Decoded METAR 2021/10/24 21:56 UTC NOAA

Unalakleet, AK, United States (PAUN) 63-53N 160-48W 6M
Oct 24, 2021 - 05:56 PM EDT / 2021.10.24 2156 UTC
Wind: from the SSW (210 degrees) at 18 MPH (16 KT):0
Visibility: 10 mile(s):0
Sky conditions: overcast
Precipitation last hour: A trace
Temperature: 34.0 F (1.1 C)
Windchill: 23 F (-5 C):1
Dew Point: 28.9 F (-1.7 C)
Relative Humidity: 81%
Pressure (altimeter): 29.44 in. Hg (996 hPa)
ob: PAUN 242156Z AUTO 21016KT 10SM BKN016 OVC022 01/M02 A2944 RMK AO2 UPE2058 SLP973 P0000 T00111017 FZRANO
cycle: 22

Station Type Date Time Source
PAUN TAF 2021/10/24 18:42 UTC NOAA

TAF PAUN 241739Z 2418/2518 22017KT P6SM VCSH OVC016
FM242000 24005KT 5SM -SHSN OVC015

Example: see airport list